Time;durP1;ratioP1;P1;durP2;ratioP2;P2;SDS_P1;SDS_P2;PMS_P1;PMS_P2;Temp;Humidity;BMP_temperature;BMP_pressure;BME280_temperature;BME280_humidity;BME280_pressure;Samples;Min_cycle;Max_cycle;Signal;HPM_P1;HPM_P2
2023/05/27 00:02:05;;;;;;;;;;;;;;;;;;5073993;28;20433;-66
2023/05/27 00:04:31;;;;;;;;;;;;;;;;;;5074374;28;20023;-66
2023/05/27 00:06:57;;;;;;;;;;;;;;;;;;5074171;28;19921;-66
2023/05/27 00:09:23;;;;;;;;;;;;;;;;;;5074072;28;20284;-66
2023/05/27 00:11:49;;;;;;;;;;;;;;;;;;5073948;28;19928;-66
2023/05/27 00:14:17;;;;;;;;;;;;;;;;;;5074226;28;19936;-66
2023/05/27 00:16:43;;;;;;;;;;;;;;;;;;5073617;28;19924;-66
2023/05/27 00:19:08;;;;;;;;;;;;;;;;;;5073741;28;20275;-66
2023/05/27 00:21:35;;;;;;;;;;;;;;;;;;5073582;28;19924;-66
2023/05/27 00:24:01;;;;;;;;;;;;;;;;;;5073998;28;19928;-66
2023/05/27 00:26:27;;;;;;;;;;;;;;;;;;5073596;28;20389;-66
2023/05/27 00:28:53;;;;;;;;;;;;;;;;;;5073366;28;19966;-66
2023/05/27 00:31:19;;;;;;;;;;;;;;;;;;5073372;28;19924;-67
2023/05/27 00:33:45;;;;;;;;;;;;;;;;;;5073049;28;20302;-66
2023/05/27 00:36:10;;;;;;;;;;;;;;;;;;5074453;28;19932;-66
2023/05/27 00:38:36;;;;;;;;;;;;;;;;;;5074456;28;19967;-66
2023/05/27 00:41:02;;;;;;;;;;;;;;;;;;5073031;28;20369;-66
2023/05/27 00:43:30;;;;;;;;;;;;;;;;;;5073600;28;20286;-66
2023/05/27 00:45:56;;;;;;;;;;;;;;;;;;5074397;28;19921;-66
2023/05/27 00:48:22;;;;;;;;;;;;;;;;;;5073028;28;19931;-66
2023/05/27 00:50:48;;;;;;;;;;;;;;;;;;5072653;28;19920;-66
2023/05/27 00:53:14;;;;;;;;;;;;;;;;;;5073937;28;19924;-66
2023/05/27 00:55:40;;;;;;;;;;;;;;;;;;5072506;28;19929;-66
2023/05/27 00:58:09;;;;;;;;;;;;;;;;;;5074478;28;19924;-66
2023/05/27 01:00:37;;;;;;;;;;;;;;;;;;5074865;28;19925;-66
2023/05/27 01:03:03;;;;;;;;;;;;;;;;;;5073263;28;19929;-66
2023/05/27 01:05:29;;;;;;;;;;;;;;;;;;5074521;28;19920;-66
2023/05/27 01:07:55;;;;;;;;;;;;;;;;;;5073422;28;19928;-66
2023/05/27 01:10:21;;;;;;;;;;;;;;;;;;5074900;28;20354;-66
2023/05/27 01:12:47;;;;;;;;;;;;;;;;;;5072812;28;19920;-66
2023/05/27 01:15:13;;;;;;;;;;;;;;;;;;5073408;28;19924;-66
2023/05/27 01:17:42;;;;;;;;;;;;;;;;;;5073384;28;20374;-66
2023/05/27 01:20:10;;;;;;;;;;;;;;;;;;5073072;28;19928;-66
2023/05/27 01:22:35;;;;;;;;;;;;;;;;;;5072982;28;19929;-66
2023/05/27 01:25:02;;;;;;;;;;;;;;;;;;5074348;28;19920;-66
2023/05/27 01:27:28;;;;;;;;;;;;;;;;;;5072823;28;19921;-66
2023/05/27 01:29:56;;;;;;;;;;;;;;;;;;5074496;28;19924;-66
2023/05/27 01:32:22;;;;;;;;;;;;;;;;;;5074027;28;20627;-66
2023/05/27 01:34:48;;;;;;;;;;;;;;;;;;5072851;28;19967;-66
2023/05/27 01:37:13;;;;;;;;;;;;;;;;;;5074317;28;19921;-66
2023/05/27 01:39:39;;;;;;;;;;;;;;;;;;5072622;28;19963;-66
2023/05/27 01:42:06;;;;;;;;;;;;;;;;;;5073842;28;19955;-66
2023/05/27 01:44:31;;;;;;;;;;;;;;;;;;5072799;28;19967;-66
2023/05/27 01:46:57;;;;;;;;;;;;;;;;;;5072643;28;19971;-66
2023/05/27 01:49:23;;;;;;;;;;;;;;;;;;5073997;28;19971;-66
2023/05/27 01:51:49;;;;;;;;;;;;;;;;;;5072713;28;20011;-66
2023/05/27 01:54:15;;;;;;;;;;;;;;;;;;5072376;28;20358;-66
2023/05/27 01:56:41;;;;;;;;;;;;;;;;;;5073833;28;19994;-66
2023/05/27 01:59:07;;;;;;;;;;;;;;;;;;5073853;28;19924;-66
2023/05/27 02:01:33;;;;;;;;;;;;;;;;;;5073546;28;20401;-66
2023/05/27 02:03:59;;;;;;;;;;;;;;;;;;5073832;28;19951;-66
2023/05/27 02:06:25;;;;;;;;;;;;;;;;;;5071952;28;20290;-66
2023/05/27 02:08:51;;;;;;;;;;;;;;;;;;5073381;28;20330;-66
2023/05/27 02:11:17;;;;;;;;;;;;;;;;;;5073363;28;19963;-66
2023/05/27 02:13:43;;;;;;;;;;;;;;;;;;5073603;28;19921;-66
2023/05/27 02:16:09;;;;;;;;;;;;;;;;;;5072168;28;20342;-66
2023/05/27 02:18:35;;;;;;;;;;;;;;;;;;5071774;28;19935;-66
2023/05/27 02:21:05;;;;;;;;;;;;;;;;;;5073312;28;19924;-66
2023/05/27 02:23:31;;;;;;;;;;;;;;;;;;5072579;28;19928;-66
2023/05/27 02:25:57;;;;;;;;;;;;;;;;;;5073086;28;19928;-66
2023/05/27 02:28:23;;;;;;;;;;;;;;;;;;5071544;28;19924;-67
2023/05/27 02:30:48;;;;;;;;;;;;;;;;;;5071954;28;19927;-66
2023/05/27 02:33:14;;;;;;;;;;;;;;;;;;5071839;28;19967;-66
2023/05/27 02:35:40;;;;;;;;;;;;;;;;;;5071720;28;20407;-66
2023/05/27 02:38:06;;;;;;;;;;;;;;;;;;5071464;28;19931;-66
2023/05/27 02:40:32;;;;;;;;;;;;;;;;;;5070754;28;19927;-66
2023/05/27 02:42:58;;;;;;;;;;;;;;;;;;5072064;28;19968;-66
2023/05/27 02:45:25;;;;;;;;;;;;;;;;;;5071190;28;19928;-66
2023/05/27 02:47:51;;;;;;;;;;;;;;;;;;5071829;28;20007;-66
2023/05/27 02:50:16;;;;;;;;;;;;;;;;;;5070378;28;19967;-66
2023/05/27 02:52:42;;;;;;;;;;;;;;;;;;5070725;28;19921;-66
2023/05/27 02:55:08;;;;;;;;;;;;;;;;;;5071170;28;19932;-66
2023/05/27 02:57:35;;;;;;;;;;;;;;;;;;5072518;28;20301;-66
2023/05/27 03:00:00;;;;;;;;;;;;;;;;;;5072480;28;20011;-66
2023/05/27 03:02:26;;;;;;;;;;;;;;;;;;5071099;28;20377;-66
2023/05/27 03:04:55;;;;;;;;;;;;;;;;;;5070838;28;19928;-66
2023/05/27 03:07:21;;;;;;;;;;;;;;;;;;5072074;28;19931;-66
2023/05/27 03:09:47;;;;;;;;;;;;;;;;;;5071680;28;20282;-66
2023/05/27 03:12:12;;;;;;;;;;;;;;;;;;5070330;28;19932;-67
2023/05/27 03:14:38;;;;;;;;;;;;;;;;;;5053497;28;19947;-68
2023/05/27 03:17:05;;;;;;;;;;;;;;;;;;5070108;28;19931;-70
2023/05/27 03:19:30;;;;;;;;;;;;;;;;;;5069644;28;19920;-70
2023/05/27 03:21:56;;;;;;;;;;;;;;;;;;5070066;28;19925;-67
2023/05/27 03:24:23;;;;;;;;;;;;;;;;;;5053090;28;19929;-67
2023/05/27 03:26:49;;;;;;;;;;;;;;;;;;5071298;28;19951;-67
2023/05/27 03:29:15;;;;;;;;;;;;;;;;;;5070953;28;20011;-67
2023/05/27 03:31:41;;;;;;;;;;;;;;;;;;5069790;28;19921;-67
2023/05/27 03:34:07;;;;;;;;;;;;;;;;;;5071209;28;19920;-67
2023/05/27 03:36:35;;;;;;;;;;;;;;;;;;5070050;28;19931;-66
2023/05/27 03:39:01;;;;;;;;;;;;;;;;;;5070344;28;20380;-66
2023/05/27 03:41:26;;;;;;;;;;;;;;;;;;5070195;28;19931;-66
2023/05/27 03:43:52;;;;;;;;;;;;;;;;;;5070039;28;20330;-66
2023/05/27 03:46:18;;;;;;;;;;;;;;;;;;5070104;28;19946;-66
2023/05/27 03:48:44;;;;;;;;;;;;;;;;;;5070101;28;19928;-66
2023/05/27 03:51:10;;;;;;;;;;;;;;;;;;5070090;28;19924;-66
2023/05/27 03:53:36;;;;;;;;;;;;;;;;;;5069962;28;19989;-66
2023/05/27 03:56:02;;;;;;;;;;;;;;;;;;5070267;28;19960;-66
2023/05/27 03:58:28;;;;;;;;;;;;;;;;;;5070164;28;19971;-66
2023/05/27 04:00:55;;;;;;;;;;;;;;;;;;5069900;28;19931;-66
2023/05/27 04:03:21;;;;;;;;;;;;;;;;;;5070105;28;19931;-66
2023/05/27 04:05:47;;;;;;;;;;;;;;;;;;5070007;28;19920;-66
2023/05/27 04:08:13;;;;;;;;;;;;;;;;;;5070030;28;20289;-66
2023/05/27 04:10:38;;;;;;;;;;;;;;;;;;5053281;28;19924;-66
2023/05/27 04:13:04;;;;;;;;;;;;;;;;;;5071609;28;20324;-66
2023/05/27 04:15:30;;;;;;;;;;;;;;;;;;5070236;28;20293;-66
2023/05/27 04:17:56;;;;;;;;;;;;;;;;;;5070020;28;20676;-66
2023/05/27 04:20:23;;;;;;;;;;;;;;;;;;5071091;28;20057;-67
2023/05/27 04:22:49;;;;;;;;;;;;;;;;;;5053288;28;19928;-66
2023/05/27 04:25:15;;;;;;;;;;;;;;;;;;5069758;28;19925;-66
2023/05/27 04:27:42;;;;;;;;;;;;;;;;;;5071267;28;19921;-66
2023/05/27 04:30:08;;;;;;;;;;;;;;;;;;5070054;28;19970;-66
2023/05/27 04:32:37;;;;;;;;;;;;;;;;;;5070082;28;20442;-66
2023/05/27 04:35:03;;;;;;;;;;;;;;;;;;5069689;28;20465;-66
2023/05/27 04:37:29;;;;;;;;;;;;;;;;;;5069935;28;20020;-66
2023/05/27 04:39:56;;;;;;;;;;;;;;;;;;5071239;28;20002;-66
2023/05/27 04:42:22;;;;;;;;;;;;;;;;;;5071383;28;19954;-66
2023/05/27 04:44:48;;;;;;;;;;;;;;;;;;5069637;28;19924;-66
2023/05/27 04:47:15;;;;;;;;;;;;;;;;;;5055029;28;20267;-66
2023/05/27 04:49:41;;;;;;;;;;;;;;;;;;5074529;28;19924;-66
2023/05/27 04:52:06;;;;;;;;;;;;;;;;;;5074889;28;19931;-66
2023/05/27 04:54:32;;;;;;;;;;;;;;;;;;5074681;28;20290;-66
2023/05/27 04:56:59;;;;;;;;;;;;;;;;;;5073182;28;19921;-66
2023/05/27 04:59:35;;;;;;;;;;;;;;;;;;5074697;28;19940;-66
2023/05/27 05:02:10;;;;;;;;;;;;;;;;;;5073036;28;19920;-66
2023/05/27 05:04:36;;;;;;;;;;;;;;;;;;5074680;28;20286;-66
2023/05/27 05:07:03;;;;;;;;;;;;;;;;;;5073915;28;19921;-67
2023/05/27 05:09:29;;;;;;;;;;;;;;;;;;5074367;28;19928;-67
2023/05/27 05:11:55;;;;;;;;;;;;;;;;;;5074457;28;19930;-67
2023/05/27 05:14:21;;;;;;;;;;;;;;;;;;5072873;28;19943;-66
2023/05/27 05:16:47;;;;;;;;;;;;;;;;;;5072686;28;19928;-67
2023/05/27 05:19:13;;;;;;;;;;;;;;;;;;5074297;28;19920;-67
2023/05/27 05:21:38;;;;;;;;;;;;;;;;;;5055997;28;20281;-66
2023/05/27 05:24:05;;;;;;;;;;;;;;;;;;5074120;28;19983;-66
2023/05/27 05:26:31;;;;;;;;;;;;;;;;;;5072634;28;19920;-66
2023/05/27 05:28:57;;;;;;;;;;;;;;;;;;5072540;28;19924;-66
2023/05/27 05:31:23;;;;;;;;;;;;;;;;;;5072857;28;19924;-67
2023/05/27 05:33:49;;;;;;;;;;;;;;;;;;5072481;28;19948;-66
2023/05/27 05:36:15;;;;;;;;;;;;;;;;;;5072526;28;19998;-67
2023/05/27 05:38:41;;;;;;;;;;;;;;;;;;5072825;28;20326;-67
2023/05/27 05:41:07;;;;;;;;;;;;;;;;;;5055697;28;20036;-67
2023/05/27 05:43:33;;;;;;;;;;;;;;;;;;5072277;28;19924;-67
2023/05/27 05:45:59;;;;;;;;;;;;;;;;;;5072013;28;20376;-67
2023/05/27 05:48:25;;;;;;;;;;;;;;;;;;5072301;28;20019;-67
2023/05/27 05:50:51;;;;;;;;;;;;;;;;;;5073558;28;20008;-67
2023/05/27 05:53:17;;;;;;;;;;;;;;;;;;5055630;28;20356;-67
2023/05/27 05:55:43;;;;;;;;;;;;;;;;;;5073612;28;19977;-67
2023/05/27 05:58:09;;;;;;;;;;;;;;;;;;5071039;28;20058;-67
2023/05/27 06:00:35;;;;;;;;;;;;;;;;;;5055203;28;19924;-67
2023/05/27 06:03:01;;;;;;;;;;;;;;;;;;5071713;28;19928;-67
2023/05/27 06:05:27;;;;;;;;;;;;;;;;;;5073051;28;19924;-67
2023/05/27 06:07:53;;;;;;;;;;;;;;;;;;5073148;28;20258;-67
2023/05/27 06:10:19;;;;;;;;;;;;;;;;;;5073567;28;19966;-67
2023/05/27 06:12:45;;;;;;;;;;;;;;;;;;5054940;28;19936;-67
2023/05/27 06:15:11;;;;;;;;;;;;;;;;;;5071621;28;19920;-67
2023/05/27 06:17:37;;;;;;;;;;;;;;;;;;5073200;28;20050;-67
2023/05/27 06:20:03;;;;;;;;;;;;;;;;;;5071647;22;20015;-66
2023/05/27 06:22:29;;;;;;;;;;;;;;;;;;5031983;28;19984;-67
2023/05/27 06:24:55;;;;;;;;;;;;;;;;;;5015191;28;20340;-67
2023/05/27 06:27:21;;;;;;;;;;;;;;;;;;5033029;28;19921;-67
2023/05/27 06:29:47;;;;;;;;;;;;;;;;;;5030997;28;19929;-67
2023/05/27 06:32:13;;;;;;;;;;;;;;;;;;5031308;28;19927;-67
2023/05/27 06:34:39;;;;;;;;;;;;;;;;;;5032813;28;19921;-67
2023/05/27 06:37:05;;;;;;;;;;;;;;;;;;5014446;28;20106;-67
2023/05/27 06:39:31;;;;;;;;;;;;;;;;;;5031588;28;20011;-67
2023/05/27 06:41:57;;;;;;;;;;;;;;;;;;5032585;28;19925;-67
2023/05/27 06:44:23;;;;;;;;;;;;;;;;;;5032401;28;19927;-67
2023/05/27 06:46:49;;;;;;;;;;;;;;;;;;5032519;28;20345;-67
2023/05/27 06:49:14;;;;;;;;;;;;;;;;;;5031024;28;19925;-67
2023/05/27 06:51:40;;;;;;;;;;;;;;;;;;5032513;28;19943;-67
2023/05/27 06:54:06;;;;;;;;;;;;;;;;;;5030711;28;20011;-67
2023/05/27 06:56:32;;;;;;;;;;;;;;;;;;5030691;28;20015;-67
2023/05/27 06:58:58;;;;;;;;;;;;;;;;;;5033013;28;19932;-67
2023/05/27 07:01:24;;;;;;;;;;;;;;;;;;5033034;28;19925;-68
2023/05/27 07:03:50;;;;;;;;;;;;;;;;;;5031241;28;19944;-67
2023/05/27 07:06:16;;;;;;;;;;;;;;;;;;5032078;28;19929;-67
2023/05/27 07:08:42;;;;;;;;;;;;;;;;;;5031864;28;19925;-67
2023/05/27 07:11:08;;;;;;;;;;;;;;;;;;5031869;28;19921;-67
2023/05/27 07:13:34;;;;;;;;;;;;;;;;;;5032120;28;20263;-67
2023/05/27 07:16:00;;;;;;;;;;;;;;;;;;5032039;28;19971;-67
2023/05/27 07:18:26;;;;;;;;;;;;;;;;;;5030600;28;20568;-67
2023/05/27 07:20:51;;;;;;;;;;;;;;;;;;5031794;28;19932;-67
2023/05/27 07:23:17;;;;;;;;;;;;;;;;;;5032003;28;19921;-67
2023/05/27 07:25:43;;;;;;;;;;;;;;;;;;5031950;28;20366;-67
2023/05/27 07:28:09;;;;;;;;;;;;;;;;;;5030204;28;19921;-67
2023/05/27 07:30:35;;;;;;;;;;;;;;;;;;5031627;28;20007;-67
2023/05/27 07:33:01;;;;;;;;;;;;;;;;;;5030891;28;19921;-67
2023/05/27 07:35:27;;;;;;;;;;;;;;;;;;5029623;28;20391;-67
2023/05/27 07:37:53;;;;;;;;;;;;;;;;;;5031192;28;20434;-67
2023/05/27 07:40:19;;;;;;;;;;;;;;;;;;5030671;28;19983;-67
2023/05/27 07:42:45;;;;;;;;;;;;;;;;;;5030539;28;19968;-67
2023/05/27 07:45:11;;;;;;;;;;;;;;;;;;5031326;28;19925;-67
2023/05/27 07:47:37;;;;;;;;;;;;;;;;;;5030094;28;19944;-67
2023/05/27 07:50:03;;;;;;;;;;;;;;;;;;5030226;28;19921;-67
2023/05/27 07:52:29;;;;;;;;;;;;;;;;;;5013855;28;19932;-67
2023/05/27 07:54:56;;;;;;;;;;;;;;;;;;5031478;28;19921;-67
2023/05/27 07:57:22;;;;;;;;;;;;;;;;;;5031565;28;20400;-67
2023/05/27 07:59:48;;;;;;;;;;;;;;;;;;5031366;28;19925;-67
2023/05/27 08:02:14;;;;;;;;;;;;;;;;;;5031644;28;19933;-67
2023/05/27 08:04:40;;;;;;;;;;;;;;;;;;5013708;28;19921;-67
2023/05/27 08:07:05;;;;;;;;;;;;;;;;;;5030162;28;19925;-67
2023/05/27 08:09:32;;;;;;;;;;;;;;;;;;5031392;28;20413;-67
2023/05/27 08:11:58;;;;;;;;;;;;;;;;;;5031470;28;19925;-67
2023/05/27 08:14:24;;;;;;;;;;;;;;;;;;5031240;28;20483;-67
2023/05/27 08:16:50;;;;;;;;;;;;;;;;;;5031510;28;19925;-67
2023/05/27 08:19:16;;;;;;;;;;;;;;;;;;5031446;28;19971;-67
2023/05/27 08:21:42;;;;;;;;;;;;;;;;;;5032575;28;19925;-67
2023/05/27 08:24:08;;;;;;;;;;;;;;;;;;5035085;28;20007;-67
2023/05/27 08:26:34;;;;;;;;;;;;;;;;;;5035230;28;20012;-67
2023/05/27 08:29:01;;;;;;;;;;;;;;;;;;5035192;28;19928;-67
2023/05/27 08:31:27;;;;;;;;;;;;;;;;;;5035144;28;19925;-67
2023/05/27 08:33:53;;;;;;;;;;;;;;;;;;5033560;28;20382;-67
2023/05/27 08:36:19;;;;;;;;;;;;;;;;;;5034984;28;19928;-67
2023/05/27 08:38:45;;;;;;;;;;;;;;;;;;5034935;28;19925;-67
2023/05/27 08:41:11;;;;;;;;;;;;;;;;;;5034792;28;20314;-67
2023/05/27 08:43:36;;;;;;;;;;;;;;;;;;5034945;28;19978;-67
2023/05/27 08:46:02;;;;;;;;;;;;;;;;;;5034946;28;19921;-67
2023/05/27 08:48:28;;;;;;;;;;;;;;;;;;5034938;28;20596;-67
2023/05/27 08:50:54;;;;;;;;;;;;;;;;;;5034202;28;19932;-67
2023/05/27 08:53:20;;;;;;;;;;;;;;;;;;5033682;28;19921;-67
2023/05/27 08:55:46;;;;;;;;;;;;;;;;;;5033576;28;20389;-67
2023/05/27 08:58:12;;;;;;;;;;;;;;;;;;5033831;28;19925;-67
2023/05/27 09:00:38;;;;;;;;;;;;;;;;;;5033569;28;19929;-67
2023/05/27 09:03:04;;;;;;;;;;;;;;;;;;5034055;28;20012;-67
2023/05/27 09:05:30;;;;;;;;;;;;;;;;;;5033959;28;19979;-67
2023/05/27 09:07:56;;;;;;;;;;;;;;;;;;5033527;28;19936;-67
2023/05/27 09:10:22;;;;;;;;;;;;;;;;;;5031764;28;19924;-67
2023/05/27 09:12:48;;;;;;;;;;;;;;;;;;5033520;28;20228;-67
2023/05/27 09:15:14;;;;;;;;;;;;;;;;;;5033249;28;20337;-67
2023/05/27 09:17:39;;;;;;;;;;;;;;;;;;5034063;28;19925;-67
2023/05/27 09:20:07;;;;;;;;;;;;;;;;;;5033693;28;19933;-67
2023/05/27 09:22:33;;;;;;;;;;;;;;;;;;5034077;28;20465;-67
2023/05/27 09:24:59;;;;;;;;;;;;;;;;;;5033560;28;19925;-67
2023/05/27 09:27:25;;;;;;;;;;;;;;;;;;5032750;28;20005;-67
2023/05/27 09:29:51;;;;;;;;;;;;;;;;;;5034074;28;19925;-67
2023/05/27 09:32:17;;;;;;;;;;;;;;;;;;5034078;28;20244;-67
2023/05/27 09:34:43;;;;;;;;;;;;;;;;;;5033856;28;19932;-66
2023/05/27 09:37:10;;;;;;;;;;;;;;;;;;5015883;28;20271;-66
2023/05/27 09:39:36;;;;;;;;;;;;;;;;;;5033843;28;19929;-67
2023/05/27 09:42:02;;;;;;;;;;;;;;;;;;5033688;28;19928;-67
2023/05/27 09:44:27;;;;;;;;;;;;;;;;;;5033648;28;19925;-67
2023/05/27 09:46:54;;;;;;;;;;;;;;;;;;5033440;28;19944;-67
2023/05/27 09:49:20;;;;;;;;;;;;;;;;;;5015976;28;20471;-66
2023/05/27 09:51:46;;;;;;;;;;;;;;;;;;5033509;28;20016;-67
2023/05/27 09:54:12;;;;;;;;;;;;;;;;;;5033418;28;20023;-66
2023/05/27 09:56:38;;;;;;;;;;;;;;;;;;5033345;28;20055;-67
2023/05/27 09:59:06;;;;;;;;;;;;;;;;;;5033500;28;20320;-67
2023/05/27 10:01:33;;;;;;;;;;;;;;;;;;5032557;28;21447;-66
2023/05/27 10:03:59;;;;;;;;;;;;;;;;;;5033493;28;20007;-67
2023/05/27 10:06:29;;;;;;;;;;;;;;;;;;5015749;28;20461;-67
2023/05/27 10:08:58;;;;;;;;;;;;;;;;;;5033123;28;20414;-67
2023/05/27 10:11:26;;;;;;;;;;;;;;;;;;5033344;28;19925;-66
2023/05/27 10:13:52;;;;;;;;;;;;;;;;;;5033151;28;20301;-66
2023/05/27 10:16:17;;;;;;;;;;;;;;;;;;5032045;28;19968;-66
2023/05/27 10:18:43;;;;;;;;;;;;;;;;;;5033131;28;20383;-66
2023/05/27 10:21:09;;;;;;;;;;;;;;;;;;5014956;28;19929;-66
2023/05/27 10:23:36;;;;;;;;;;;;;;;;;;5033030;28;19929;-67
2023/05/27 10:26:02;;;;;;;;;;;;;;;;;;5032748;28;19928;-67
2023/05/27 10:28:28;;;;;;;;;;;;;;;;;;5032926;28;20055;-67
2023/05/27 10:30:54;;;;;;;;;;;;;;;;;;5032637;28;19967;-66
2023/05/27 10:33:20;;;;;;;;;;;;;;;;;;5033010;28;20271;-66
2023/05/27 10:35:46;;;;;;;;;;;;;;;;;;5032485;28;20294;-67
2023/05/27 10:38:12;;;;;;;;;;;;;;;;;;5032190;28;20475;-67
2023/05/27 10:40:38;;;;;;;;;;;;;;;;;;5032284;28;19936;-67
2023/05/27 10:43:04;;;;;;;;;;;;;;;;;;5032390;28;19921;-67
2023/05/27 10:45:30;;;;;;;;;;;;;;;;;;5031433;28;19975;-67
2023/05/27 10:47:56;;;;;;;;;;;;;;;;;;5031452;28;19929;-67
2023/05/27 10:50:22;;;;;;;;;;;;;;;;;;5031584;28;20023;-67
2023/05/27 10:52:47;;;;;;;;;;;;;;;;;;5031492;28;19921;-67
2023/05/27 10:55:13;;;;;;;;;;;;;;;;;;5031817;28;19928;-67
2023/05/27 10:57:39;;;;;;;;;;;;;;;;;;5030108;28;19925;-67
2023/05/27 11:00:08;;;;;;;;;;;;;;;;;;5014341;28;19924;-67
2023/05/27 11:02:35;;;;;;;;;;;;;;;;;;5031939;28;19991;-67
2023/05/27 11:05:01;;;;;;;;;;;;;;;;;;5032228;28;19976;-67
2023/05/27 11:07:27;;;;;;;;;;;;;;;;;;5031758;28;20018;-67
2023/05/27 11:09:53;;;;;;;;;;;;;;;;;;5014413;28;20371;-67
2023/05/27 11:12:19;;;;;;;;;;;;;;;;;;5032137;28;19928;-67
2023/05/27 11:14:44;;;;;;;;;;;;;;;;;;5032099;28;19925;-67
2023/05/27 11:17:10;;;;;;;;;;;;;;;;;;5030493;28;19921;-67
2023/05/27 11:19:36;;;;;;;;;;;;;;;;;;5032025;28;19921;-66
2023/05/27 11:22:02;;;;;;;;;;;;;;;;;;5010122;28;19925;-66
2023/05/27 11:24:28;;;;;;;;;;;;;;;;;;5010156;28;20414;-67
2023/05/27 11:26:55;;;;;;;;;;;;;;;;;;5010097;28;19976;-67
2023/05/27 11:29:20;;;;;;;;;;;;;;;;;;5011399;28;20000;-67
2023/05/27 11:31:49;;;;;;;;;;;;;;;;;;5011091;28;20506;-67
2023/05/27 11:34:15;;;;;;;;;;;;;;;;;;5011405;28;19929;-67
2023/05/27 11:36:41;;;;;;;;;;;;;;;;;;5012129;28;19927;-67
2023/05/27 11:39:08;;;;;;;;;;;;;;;;;;5011744;28;19921;-67
2023/05/27 11:41:34;;;;;;;;;;;;;;;;;;5010867;28;19930;-67
2023/05/27 11:44:00;;;;;;;;;;;;;;;;;;5009628;28;19957;-67
2023/05/27 11:46:26;;;;;;;;;;;;;;;;;;5011249;28;19980;-67
2023/05/27 11:48:52;;;;;;;;;;;;;;;;;;5010959;28;19929;-67
2023/05/27 11:51:18;;;;;;;;;;;;;;;;;;5009743;28;19921;-67
2023/05/27 11:53:44;;;;;;;;;;;;;;;;;;5011128;28;19925;-66
2023/05/27 11:56:10;;;;;;;;;;;;;;;;;;5011405;28;19988;-67
2023/05/27 11:58:36;;;;;;;;;;;;;;;;;;5015658;28;20012;-67
2023/05/27 12:01:02;;;;;;;;;;;;;;;;;;5015795;28;20279;-67
2023/05/27 12:03:28;;;;;;;;;;;;;;;;;;5015656;28;19997;-67
2023/05/27 12:05:54;;;;;;;;;;;;;;;;;;5015779;28;19925;-67
2023/05/27 12:08:20;;;;;;;;;;;;;;;;;;5015415;28;19925;-66
2023/05/27 12:10:50;;;;;;;;;;;;;;;;;;5015782;28;19972;-67
2023/05/27 12:13:16;;;;;;;;;;;;;;;;;;5015345;28;20012;-67
2023/05/27 12:15:41;;;;;;;;;;;;;;;;;;5015629;28;20059;-67
2023/05/27 12:18:07;;;;;;;;;;;;;;;;;;5015409;28;20359;-67
2023/05/27 12:20:33;;;;;;;;;;;;;;;;;;5021855;28;19932;-67
2023/05/27 12:22:59;;;;;;;;;;;;;;;;;;5035017;28;20369;-67
2023/05/27 12:25:25;;;;;;;;;;;;;;;;;;5035206;28;20453;-67
2023/05/27 12:27:51;;;;;;;;;;;;;;;;;;5034831;28;19921;-66
2023/05/27 12:30:17;;;;;;;;;;;;;;;;;;5035316;28;19927;-67
2023/05/27 12:32:43;;;;;;;;;;;;;;;;;;5035123;28;19925;-67
2023/05/27 12:35:09;;;;;;;;;;;;;;;;;;5033650;28;20020;-67
2023/05/27 12:37:36;;;;;;;;;;;;;;;;;;5017542;28;19968;-67
2023/05/27 12:40:04;;;;;;;;;;;;;;;;;;5034955;28;19979;-67
2023/05/27 12:42:30;;;;;;;;;;;;;;;;;;5035213;28;19921;-67
2023/05/27 12:44:56;;;;;;;;;;;;;;;;;;5034971;28;19972;-67
2023/05/27 12:47:22;;;;;;;;;;;;;;;;;;5035003;28;19964;-67
2023/05/27 12:49:48;;;;;;;;;;;;;;;;;;5034783;28;20386;-66
2023/05/27 12:52:14;;;;;;;;;;;;;;;;;;5034782;28;19944;-67
2023/05/27 12:54:40;;;;;;;;;;;;;;;;;;5034601;28;19968;-67
2023/05/27 12:57:06;;;;;;;;;;;;;;;;;;5034453;28;20003;-67
2023/05/27 12:59:32;;;;;;;;;;;;;;;;;;5034152;28;20448;-67
2023/05/27 13:01:58;;;;;;;;;;;;;;;;;;5034248;28;19975;-66
2023/05/27 13:04:24;;;;;;;;;;;;;;;;;;5033551;28;19921;-66
2023/05/27 13:06:50;;;;;;;;;;;;;;;;;;5033130;28;19925;-66
2023/05/27 13:09:16;;;;;;;;;;;;;;;;;;5034160;28;19932;-66
2023/05/27 13:11:42;;;;;;;;;;;;;;;;;;5033234;28;20290;-67
2023/05/27 13:14:08;;;;;;;;;;;;;;;;;;5033540;28;19922;-67
2023/05/27 13:16:34;;;;;;;;;;;;;;;;;;5016114;28;19925;-67
2023/05/27 13:19:00;;;;;;;;;;;;;;;;;;5034127;28;20328;-67
2023/05/27 13:21:26;;;;;;;;;;;;;;;;;;5033876;28;20535;-67
2023/05/27 13:23:51;;;;;;;;;;;;;;;;;;5034304;28;19921;-67
2023/05/27 13:26:17;;;;;;;;;;;;;;;;;;5034068;28;19971;-67
2023/05/27 13:28:43;;;;;;;;;;;;;;;;;;5016473;28;20324;-67
2023/05/27 13:31:09;;;;;;;;;;;;;;;;;;5016153;28;19929;-67
2023/05/27 13:33:35;;;;;;;;;;;;;;;;;;5033560;28;20333;-67
2023/05/27 13:36:01;;;;;;;;;;;;;;;;;;5015893;28;19925;-67
2023/05/27 13:38:27;;;;;;;;;;;;;;;;;;5033894;28;20359;-67
2023/05/27 13:40:53;;;;;;;;;;;;;;;;;;5033501;28;19929;-67
2023/05/27 13:43:19;;;;;;;;;;;;;;;;;;5032436;28;19971;-67
2023/05/27 13:45:45;;;;;;;;;;;;;;;;;;5033619;28;19925;-67
2023/05/27 13:48:11;;;;;;;;;;;;;;;;;;5033781;28;19921;-67
2023/05/27 13:50:36;;;;;;;;;;;;;;;;;;5033323;28;19921;-67
2023/05/27 13:53:02;;;;;;;;;;;;;;;;;;5033599;28;19928;-68
2023/05/27 13:55:28;;;;;;;;;;;;;;;;;;5033591;28;19925;-68
2023/05/27 13:57:54;;;;;;;;;;;;;;;;;;5033397;28;20383;-68
2023/05/27 14:00:21;;;;;;;;;;;;;;;;;;5033454;28;19921;-68
2023/05/27 14:02:47;;;;;;;;;;;;;;;;;;5033525;28;20003;-68
2023/05/27 14:05:13;;;;;;;;;;;;;;;;;;5033315;28;20327;-68
2023/05/27 14:07:40;;;;;;;;;;;;;;;;;;5033322;28;19925;-68
2023/05/27 14:10:06;;;;;;;;;;;;;;;;;;5015321;28;19936;-68
2023/05/27 14:12:31;;;;;;;;;;;;;;;;;;5033159;28;20015;-68
2023/05/27 14:14:57;;;;;;;;;;;;;;;;;;5031847;28;19925;-68
2023/05/27 14:17:23;;;;;;;;;;;;;;;;;;5033136;28;19970;-68
2023/05/27 14:19:49;;;;;;;;;;;;;;;;;;5031980;28;20406;-67
2023/05/27 14:22:15;;;;;;;;;;;;;;;;;;5032708;28;20456;-68
2023/05/27 14:24:41;;;;;;;;;;;;;;;;;;5032790;28;20007;-68
2023/05/27 14:27:07;;;;;;;;;;;;;;;;;;5032914;28;19940;-68
2023/05/27 14:29:33;;;;;;;;;;;;;;;;;;5031328;28;19928;-68
2023/05/27 14:31:59;;;;;;;;;;;;;;;;;;5032636;28;19925;-68
2023/05/27 14:34:25;;;;;;;;;;;;;;;;;;5031363;28;20020;-68
2023/05/27 14:36:51;;;;;;;;;;;;;;;;;;5032519;28;20371;-68
2023/05/27 14:39:17;;;;;;;;;;;;;;;;;;5032803;28;19936;-68
2023/05/27 14:41:43;;;;;;;;;;;;;;;;;;5032373;28;19925;-67
2023/05/27 14:44:09;;;;;;;;;;;;;;;;;;5032782;28;20011;-68
2023/05/27 14:46:35;;;;;;;;;;;;;;;;;;5032784;28;20271;-68
2023/05/27 14:49:01;;;;;;;;;;;;;;;;;;5031179;28;19921;-68
2023/05/27 14:51:27;;;;;;;;;;;;;;;;;;5032476;28;19967;-68
2023/05/27 14:53:53;;;;;;;;;;;;;;;;;;5014943;28;20268;-68
2023/05/27 14:56:19;;;;;;;;;;;;;;;;;;5032276;28;19925;-68
2023/05/27 14:58:46;;;;;;;;;;;;;;;;;;5032381;28;20338;-68
2023/05/27 15:01:12;;;;;;;;;;;;;;;;;;5014199;28;19933;-68
2023/05/27 15:03:38;;;;;;;;;;;;;;;;;;5032379;28;19944;-68
2023/05/27 15:06:03;;;;;;;;;;;;;;;;;;5032046;28;20331;-68
2023/05/27 15:08:29;;;;;;;;;;;;;;;;;;5032302;28;19921;-68
2023/05/27 15:10:56;;;;;;;;;;;;;;;;;;5031955;28;20441;-67
2023/05/27 15:13:22;;;;;;;;;;;;;;;;;;5014322;28;19921;-68
2023/05/27 15:15:48;;;;;;;;;;;;;;;;;;5032109;28;19928;-68
2023/05/27 15:18:14;;;;;;;;;;;;;;;;;;5032301;28;19921;-68
2023/05/27 15:20:40;;;;;;;;;;;;;;;;;;5031697;28;20325;-68
2023/05/27 15:23:06;;;;;;;;;;;;;;;;;;5032194;28;19932;-68
2023/05/27 15:25:32;;;;;;;;;;;;;;;;;;5032005;28;19925;-68
2023/05/27 15:27:58;;;;;;;;;;;;;;;;;;5030422;28;20051;-67
2023/05/27 15:30:24;;;;;;;;;;;;;;;;;;5031675;28;20020;-68
2023/05/27 15:32:50;;;;;;;;;;;;;;;;;;5031618;28;19928;-68
2023/05/27 15:35:16;;;;;;;;;;;;;;;;;;5032015;28;19936;-68
2023/05/27 15:37:42;;;;;;;;;;;;;;;;;;5030239;28;19924;-68
2023/05/27 15:40:08;;;;;;;;;;;;;;;;;;5031619;28;19972;-67
2023/05/27 15:42:34;;;;;;;;;;;;;;;;;;5031779;28;19935;-68
2023/05/27 15:45:00;;;;;;;;;;;;;;;;;;5031794;28;19921;-68
2023/05/27 15:47:26;;;;;;;;;;;;;;;;;;5031757;28;19983;-68
2023/05/27 15:49:52;;;;;;;;;;;;;;;;;;5031897;28;20618;-68
2023/05/27 15:52:18;;;;;;;;;;;;;;;;;;5031801;28;19935;-68
2023/05/27 15:54:44;;;;;;;;;;;;;;;;;;5031859;28;19943;-67
2023/05/27 15:57:10;;;;;;;;;;;;;;;;;;5031620;28;20290;-67
2023/05/27 15:59:36;;;;;;;;;;;;;;;;;;5031700;28;19929;-68
2023/05/27 16:02:03;;;;;;;;;;;;;;;;;;5031377;28;20383;-68
2023/05/27 16:04:28;;;;;;;;;;;;;;;;;;5031544;28;19952;-68
2023/05/27 16:06:54;;;;;;;;;;;;;;;;;;5013633;28;19977;-68
2023/05/27 16:09:21;;;;;;;;;;;;;;;;;;5031337;28;19925;-68
2023/05/27 16:11:47;;;;;;;;;;;;;;;;;;5031426;28;20000;-68
2023/05/27 16:14:13;;;;;;;;;;;;;;;;;;5030012;28;20457;-68
2023/05/27 16:16:39;;;;;;;;;;;;;;;;;;5031406;28;19925;-68
2023/05/27 16:19:05;;;;;;;;;;;;;;;;;;5031563;28;19921;-67
2023/05/27 16:21:31;;;;;;;;;;;;;;;;;;5031017;28;19929;-67
2023/05/27 16:23:57;;;;;;;;;;;;;;;;;;5031484;28;20474;-68
2023/05/27 16:26:23;;;;;;;;;;;;;;;;;;5031603;28;19921;-67
2023/05/27 16:28:49;;;;;;;;;;;;;;;;;;5031222;28;20260;-68
2023/05/27 16:31:14;;;;;;;;;;;;;;;;;;5031217;28;19937;-68
2023/05/27 16:33:40;;;;;;;;;;;;;;;;;;5030944;28;19925;-68
2023/05/27 16:36:07;;;;;;;;;;;;;;;;;;5031320;28;20031;-67
2023/05/27 16:38:33;;;;;;;;;;;;;;;;;;5031310;28;20266;-68